sensor_id;sensor_type;location;lat;lon;timestamp;P1;durP1;ratioP1;P2;durP2;ratioP2
28028;SDS011;15345;59.364;18.016;2024-03-02T00:00:57;48.45;;;22.08;;
28028;SDS011;15345;59.364;18.016;2024-03-02T00:02:16;42.67;;;20.42;;
28028;SDS011;15345;59.364;18.016;2024-03-02T00:03:36;46.03;;;20.98;;
28028;SDS011;15345;59.364;18.016;2024-03-02T00:04:55;44.15;;;20.38;;
28028;SDS011;15345;59.364;18.016;2024-03-02T00:06:14;42.33;;;20.33;;
28028;SDS011;15345;59.364;18.016;2024-03-02T00:07:34;43.90;;;20.27;;
28028;SDS011;15345;59.364;18.016;2024-03-02T00:08:55;50.05;;;21.02;;
28028;SDS011;15345;59.364;18.016;2024-03-02T00:10:16;43.08;;;20.88;;
28028;SDS011;15345;59.364;18.016;2024-03-02T00:11:38;48.03;;;21.70;;
28028;SDS011;15345;59.364;18.016;2024-03-02T00:12:57;44.38;;;22.10;;
28028;SDS011;15345;59.364;18.016;2024-03-02T00:14:17;40.10;;;21.20;;
28028;SDS011;15345;59.364;18.016;2024-03-02T00:15:40;40.90;;;21.25;;
28028;SDS011;15345;59.364;18.016;2024-03-02T00:17:01;48.47;;;21.38;;
28028;SDS011;15345;59.364;18.016;2024-03-02T00:18:21;42.53;;;21.15;;
28028;SDS011;15345;59.364;18.016;2024-03-02T00:19:43;48.45;;;21.08;;
28028;SDS011;15345;59.364;18.016;2024-03-02T00:21:02;43.35;;;21.33;;
28028;SDS011;15345;59.364;18.016;2024-03-02T00:22:21;42.75;;;21.13;;
28028;SDS011;15345;59.364;18.016;2024-03-02T00:23:40;47.38;;;21.67;;
28028;SDS011;15345;59.364;18.016;2024-03-02T00:25:00;41.95;;;20.92;;
28028;SDS011;15345;59.364;18.016;2024-03-02T00:26:19;48.85;;;21.05;;
28028;SDS011;15345;59.364;18.016;2024-03-02T00:27:38;43.80;;;21.13;;
28028;SDS011;15345;59.364;18.016;2024-03-02T00:28:57;40.47;;;21.50;;
28028;SDS011;15345;59.364;18.016;2024-03-02T00:30:52;48.40;;;21.90;;
28028;SDS011;15345;59.364;18.016;2024-03-02T00:32:02;46.88;;;20.90;;
28028;SDS011;15345;59.364;18.016;2024-03-02T00:33:22;50.00;;;21.02;;
28028;SDS011;15345;59.364;18.016;2024-03-02T00:34:42;44.17;;;20.80;;
28028;SDS011;15345;59.364;18.016;2024-03-02T00:36:04;44.42;;;20.77;;
28028;SDS011;15345;59.364;18.016;2024-03-02T00:37:23;46.65;;;21.58;;
28028;SDS011;15345;59.364;18.016;2024-03-02T00:38:46;47.80;;;21.08;;
28028;SDS011;15345;59.364;18.016;2024-03-02T00:40:05;45.42;;;20.05;;
28028;SDS011;15345;59.364;18.016;2024-03-02T00:41:27;43.30;;;20.13;;
28028;SDS011;15345;59.364;18.016;2024-03-02T00:42:46;47.45;;;21.88;;
28028;SDS011;15345;59.364;18.016;2024-03-02T00:44:15;48.03;;;21.35;;
28028;SDS011;15345;59.364;18.016;2024-03-02T00:45:34;43.90;;;20.50;;
28028;SDS011;15345;59.364;18.016;2024-03-02T00:46:53;47.47;;;21.75;;
28028;SDS011;15345;59.364;18.016;2024-03-02T00:48:14;43.10;;;20.63;;
28028;SDS011;15345;59.364;18.016;2024-03-02T00:49:33;41.80;;;20.05;;
28028;SDS011;15345;59.364;18.016;2024-03-02T00:50:52;38.20;;;19.40;;
28028;SDS011;15345;59.364;18.016;2024-03-02T00:52:11;42.05;;;20.48;;
28028;SDS011;15345;59.364;18.016;2024-03-02T00:53:32;43.22;;;19.60;;
28028;SDS011;15345;59.364;18.016;2024-03-02T00:54:51;43.83;;;20.17;;
28028;SDS011;15345;59.364;18.016;2024-03-02T00:56:10;46.13;;;20.08;;
28028;SDS011;15345;59.364;18.016;2024-03-02T00:57:30;40.97;;;18.95;;
28028;SDS011;15345;59.364;18.016;2024-03-02T00:58:53;50.95;;;21.15;;
28028;SDS011;15345;59.364;18.016;2024-03-02T01:00:12;36.67;;;19.63;;
28028;SDS011;15345;59.364;18.016;2024-03-02T01:01:33;40.25;;;19.75;;
28028;SDS011;15345;59.364;18.016;2024-03-02T01:02:52;45.50;;;20.38;;
28028;SDS011;15345;59.364;18.016;2024-03-02T01:04:11;42.50;;;19.92;;
28028;SDS011;15345;59.364;18.016;2024-03-02T01:05:32;42.90;;;20.27;;
28028;SDS011;15345;59.364;18.016;2024-03-02T01:06:51;42.88;;;19.98;;
28028;SDS011;15345;59.364;18.016;2024-03-02T01:08:10;44.75;;;20.30;;
28028;SDS011;15345;59.364;18.016;2024-03-02T01:09:29;46.03;;;20.52;;
28028;SDS011;15345;59.364;18.016;2024-03-02T01:10:48;44.47;;;20.40;;
28028;SDS011;15345;59.364;18.016;2024-03-02T01:12:07;42.03;;;19.55;;
28028;SDS011;15345;59.364;18.016;2024-03-02T01:13:26;39.85;;;19.45;;
28028;SDS011;15345;59.364;18.016;2024-03-02T01:14:45;38.03;;;20.77;;
28028;SDS011;15345;59.364;18.016;2024-03-02T01:16:04;41.05;;;19.77;;
28028;SDS011;15345;59.364;18.016;2024-03-02T01:17:23;40.45;;;18.95;;
28028;SDS011;15345;59.364;18.016;2024-03-02T01:18:42;43.22;;;21.20;;
28028;SDS011;15345;59.364;18.016;2024-03-02T01:20:01;39.53;;;19.90;;
28028;SDS011;15345;59.364;18.016;2024-03-02T01:21:20;37.42;;;18.45;;
28028;SDS011;15345;59.364;18.016;2024-03-02T01:22:39;50.83;;;21.23;;
28028;SDS011;15345;59.364;18.016;2024-03-02T01:23:58;47.15;;;20.52;;
28028;SDS011;15345;59.364;18.016;2024-03-02T01:25:17;41.72;;;19.80;;
28028;SDS011;15345;59.364;18.016;2024-03-02T01:26:36;44.88;;;20.23;;
28028;SDS011;15345;59.364;18.016;2024-03-02T01:27:55;49.22;;;20.52;;
28028;SDS011;15345;59.364;18.016;2024-03-02T01:29:14;38.22;;;19.65;;
28028;SDS011;15345;59.364;18.016;2024-03-02T01:30:33;46.83;;;20.27;;
28028;SDS011;15345;59.364;18.016;2024-03-02T01:31:52;47.20;;;20.83;;
28028;SDS011;15345;59.364;18.016;2024-03-02T01:33:12;52.10;;;21.33;;
28028;SDS011;15345;59.364;18.016;2024-03-02T01:34:31;37.03;;;19.20;;
28028;SDS011;15345;59.364;18.016;2024-03-02T01:35:50;43.05;;;20.90;;
28028;SDS011;15345;59.364;18.016;2024-03-02T01:37:09;45.45;;;20.85;;
28028;SDS011;15345;59.364;18.016;2024-03-02T01:38:28;45.42;;;20.63;;
28028;SDS011;15345;59.364;18.016;2024-03-02T01:39:47;47.67;;;21.35;;
28028;SDS011;15345;59.364;18.016;2024-03-02T01:41:06;49.80;;;21.30;;
28028;SDS011;15345;59.364;18.016;2024-03-02T01:42:26;51.60;;;22.45;;
28028;SDS011;15345;59.364;18.016;2024-03-02T01:43:45;47.70;;;21.05;;
28028;SDS011;15345;59.364;18.016;2024-03-02T01:45:07;47.63;;;21.73;;
28028;SDS011;15345;59.364;18.016;2024-03-02T01:46:27;55.67;;;21.63;;
28028;SDS011;15345;59.364;18.016;2024-03-02T01:47:46;47.85;;;21.58;;
28028;SDS011;15345;59.364;18.016;2024-03-02T01:49:05;47.65;;;21.52;;
28028;SDS011;15345;59.364;18.016;2024-03-02T01:50:28;46.83;;;21.42;;
28028;SDS011;15345;59.364;18.016;2024-03-02T01:51:47;50.97;;;20.13;;
28028;SDS011;15345;59.364;18.016;2024-03-02T01:53:06;44.63;;;21.90;;
28028;SDS011;15345;59.364;18.016;2024-03-02T01:54:27;50.35;;;22.65;;
28028;SDS011;15345;59.364;18.016;2024-03-02T01:55:46;45.75;;;20.52;;
28028;SDS011;15345;59.364;18.016;2024-03-02T01:57:05;49.67;;;22.15;;
28028;SDS011;15345;59.364;18.016;2024-03-02T01:58:25;58.03;;;22.75;;
28028;SDS011;15345;59.364;18.016;2024-03-02T01:59:44;50.95;;;21.52;;
28028;SDS011;15345;59.364;18.016;2024-03-02T02:01:03;48.97;;;22.10;;
28028;SDS011;15345;59.364;18.016;2024-03-02T02:02:21;51.92;;;22.08;;
28028;SDS011;15345;59.364;18.016;2024-03-02T02:03:40;48.30;;;22.05;;
28028;SDS011;15345;59.364;18.016;2024-03-02T02:04:59;51.92;;;22.17;;
28028;SDS011;15345;59.364;18.016;2024-03-02T02:06:18;47.67;;;21.50;;
28028;SDS011;15345;59.364;18.016;2024-03-02T02:07:37;56.05;;;21.75;;
28028;SDS011;15345;59.364;18.016;2024-03-02T02:08:56;54.67;;;21.98;;
28028;SDS011;15345;59.364;18.016;2024-03-02T02:10:16;49.00;;;21.38;;
28028;SDS011;15345;59.364;18.016;2024-03-02T02:11:35;51.63;;;22.48;;
28028;SDS011;15345;59.364;18.016;2024-03-02T02:12:54;48.83;;;22.45;;
28028;SDS011;15345;59.364;18.016;2024-03-02T02:14:13;51.40;;;23.17;;
28028;SDS011;15345;59.364;18.016;2024-03-02T02:15:32;55.30;;;22.30;;
28028;SDS011;15345;59.364;18.016;2024-03-02T02:16:53;51.03;;;22.65;;
28028;SDS011;15345;59.364;18.016;2024-03-02T02:18:12;51.17;;;22.17;;
28028;SDS011;15345;59.364;18.016;2024-03-02T02:19:31;52.25;;;22.48;;
28028;SDS011;15345;59.364;18.016;2024-03-02T02:20:50;50.40;;;22.42;;
28028;SDS011;15345;59.364;18.016;2024-03-02T02:22:11;51.85;;;22.25;;
28028;SDS011;15345;59.364;18.016;2024-03-02T02:23:30;50.85;;;23.38;;
28028;SDS011;15345;59.364;18.016;2024-03-02T02:24:49;48.67;;;22.65;;
28028;SDS011;15345;59.364;18.016;2024-03-02T02:26:09;49.25;;;22.70;;
28028;SDS011;15345;59.364;18.016;2024-03-02T02:27:28;55.70;;;23.17;;
28028;SDS011;15345;59.364;18.016;2024-03-02T02:28:46;54.78;;;21.77;;
28028;SDS011;15345;59.364;18.016;2024-03-02T02:30:06;53.22;;;23.05;;
28028;SDS011;15345;59.364;18.016;2024-03-02T02:31:26;55.10;;;23.67;;
28028;SDS011;15345;59.364;18.016;2024-03-02T02:32:46;48.15;;;22.15;;
28028;SDS011;15345;59.364;18.016;2024-03-02T02:34:05;55.80;;;23.17;;
28028;SDS011;15345;59.364;18.016;2024-03-02T02:35:23;49.17;;;22.35;;
28028;SDS011;15345;59.364;18.016;2024-03-02T02:36:42;51.78;;;23.15;;
28028;SDS011;15345;59.364;18.016;2024-03-02T02:38:01;53.92;;;22.90;;
28028;SDS011;15345;59.364;18.016;2024-03-02T02:39:21;53.35;;;22.80;;
28028;SDS011;15345;59.364;18.016;2024-03-02T02:40:44;57.03;;;23.67;;
28028;SDS011;15345;59.364;18.016;2024-03-02T02:42:02;50.03;;;22.42;;
28028;SDS011;15345;59.364;18.016;2024-03-02T02:43:21;54.92;;;22.98;;
28028;SDS011;15345;59.364;18.016;2024-03-02T02:44:40;53.17;;;22.83;;
28028;SDS011;15345;59.364;18.016;2024-03-02T02:45:59;59.22;;;23.00;;
28028;SDS011;15345;59.364;18.016;2024-03-02T02:47:18;51.60;;;22.33;;
28028;SDS011;15345;59.364;18.016;2024-03-02T02:48:37;46.47;;;21.85;;
28028;SDS011;15345;59.364;18.016;2024-03-02T02:49:56;51.13;;;22.10;;
28028;SDS011;15345;59.364;18.016;2024-03-02T02:51:15;62.88;;;23.48;;
28028;SDS011;15345;59.364;18.016;2024-03-02T02:52:35;57.88;;;23.98;;
28028;SDS011;15345;59.364;18.016;2024-03-02T02:53:55;47.20;;;22.20;;
28028;SDS011;15345;59.364;18.016;2024-03-02T02:55:13;50.15;;;22.63;;
28028;SDS011;15345;59.364;18.016;2024-03-02T02:56:34;49.72;;;23.23;;
28028;SDS011;15345;59.364;18.016;2024-03-02T02:57:53;53.92;;;24.42;;
28028;SDS011;15345;59.364;18.016;2024-03-02T02:59:12;48.95;;;22.20;;
28028;SDS011;15345;59.364;18.016;2024-03-02T03:00:31;55.80;;;23.50;;
28028;SDS011;15345;59.364;18.016;2024-03-02T03:01:51;58.50;;;24.23;;
28028;SDS011;15345;59.364;18.016;2024-03-02T03:03:10;51.33;;;23.42;;
28028;SDS011;15345;59.364;18.016;2024-03-02T03:04:29;54.80;;;22.13;;
28028;SDS011;15345;59.364;18.016;2024-03-02T03:05:48;50.83;;;23.17;;
28028;SDS011;15345;59.364;18.016;2024-03-02T03:07:07;55.63;;;23.27;;
28028;SDS011;15345;59.364;18.016;2024-03-02T03:08:26;49.00;;;23.67;;
28028;SDS011;15345;59.364;18.016;2024-03-02T03:09:45;56.05;;;25.00;;
28028;SDS011;15345;59.364;18.016;2024-03-02T03:11:04;54.78;;;24.77;;
28028;SDS011;15345;59.364;18.016;2024-03-02T03:12:23;56.22;;;25.70;;
28028;SDS011;15345;59.364;18.016;2024-03-02T03:13:42;54.47;;;24.38;;
28028;SDS011;15345;59.364;18.016;2024-03-02T03:15:01;56.03;;;25.33;;
28028;SDS011;15345;59.364;18.016;2024-03-02T03:16:21;58.70;;;26.02;;
28028;SDS011;15345;59.364;18.016;2024-03-02T03:17:40;62.78;;;23.95;;
28028;SDS011;15345;59.364;18.016;2024-03-02T03:18:59;64.30;;;24.55;;
28028;SDS011;15345;59.364;18.016;2024-03-02T03:20:18;54.53;;;25.05;;
28028;SDS011;15345;59.364;18.016;2024-03-02T03:21:40;64.30;;;26.80;;
28028;SDS011;15345;59.364;18.016;2024-03-02T03:22:59;64.13;;;25.38;;
28028;SDS011;15345;59.364;18.016;2024-03-02T03:24:18;57.00;;;25.80;;
28028;SDS011;15345;59.364;18.016;2024-03-02T03:25:36;61.13;;;24.80;;
28028;SDS011;15345;59.364;18.016;2024-03-02T03:26:55;66.53;;;24.52;;
28028;SDS011;15345;59.364;18.016;2024-03-02T03:28:14;55.67;;;25.63;;
28028;SDS011;15345;59.364;18.016;2024-03-02T03:29:33;48.17;;;24.08;;
28028;SDS011;15345;59.364;18.016;2024-03-02T03:30:52;55.95;;;25.10;;
28028;SDS011;15345;59.364;18.016;2024-03-02T03:32:11;65.00;;;25.23;;
28028;SDS011;15345;59.364;18.016;2024-03-02T03:33:31;58.00;;;25.75;;
28028;SDS011;15345;59.364;18.016;2024-03-02T03:34:50;55.45;;;25.58;;
28028;SDS011;15345;59.364;18.016;2024-03-02T03:36:09;59.70;;;24.38;;
28028;SDS011;15345;59.364;18.016;2024-03-02T03:37:28;56.58;;;24.70;;
28028;SDS011;15345;59.364;18.016;2024-03-02T03:40:10;48.25;;;23.65;;
28028;SDS011;15345;59.364;18.016;2024-03-02T03:41:30;69.15;;;26.55;;
28028;SDS011;15345;59.364;18.016;2024-03-02T03:42:49;57.85;;;25.63;;
28028;SDS011;15345;59.364;18.016;2024-03-02T03:44:09;52.17;;;24.35;;
28028;SDS011;15345;59.364;18.016;2024-03-02T03:45:28;61.30;;;25.38;;
28028;SDS011;15345;59.364;18.016;2024-03-02T03:46:47;57.35;;;24.45;;
28028;SDS011;15345;59.364;18.016;2024-03-02T03:48:06;57.78;;;25.20;;
28028;SDS011;15345;59.364;18.016;2024-03-02T03:49:25;67.07;;;26.42;;
28028;SDS011;15345;59.364;18.016;2024-03-02T03:50:44;63.15;;;24.83;;
28028;SDS011;15345;59.364;18.016;2024-03-02T03:52:04;55.22;;;24.08;;
28028;SDS011;15345;59.364;18.016;2024-03-02T03:53:23;53.10;;;24.50;;
28028;SDS011;15345;59.364;18.016;2024-03-02T03:54:42;63.38;;;25.60;;
28028;SDS011;15345;59.364;18.016;2024-03-02T03:56:03;70.88;;;25.75;;
28028;SDS011;15345;59.364;18.016;2024-03-02T03:57:22;55.15;;;25.90;;
28028;SDS011;15345;59.364;18.016;2024-03-02T03:58:41;56.75;;;25.08;;
28028;SDS011;15345;59.364;18.016;2024-03-02T04:00:00;54.47;;;24.98;;
28028;SDS011;15345;59.364;18.016;2024-03-02T04:01:19;58.05;;;25.45;;
28028;SDS011;15345;59.364;18.016;2024-03-02T04:02:38;56.78;;;25.55;;
28028;SDS011;15345;59.364;18.016;2024-03-02T04:03:57;59.53;;;25.27;;
28028;SDS011;15345;59.364;18.016;2024-03-02T04:05:16;62.47;;;25.77;;
28028;SDS011;15345;59.364;18.016;2024-03-02T04:06:35;62.10;;;26.33;;
28028;SDS011;15345;59.364;18.016;2024-03-02T04:07:54;59.78;;;25.48;;
28028;SDS011;15345;59.364;18.016;2024-03-02T04:09:13;60.67;;;26.80;;
28028;SDS011;15345;59.364;18.016;2024-03-02T04:10:32;54.13;;;24.33;;
28028;SDS011;15345;59.364;18.016;2024-03-02T04:11:53;57.80;;;25.27;;
28028;SDS011;15345;59.364;18.016;2024-03-02T04:13:12;58.90;;;25.52;;
28028;SDS011;15345;59.364;18.016;2024-03-02T04:14:31;53.58;;;25.17;;
28028;SDS011;15345;59.364;18.016;2024-03-02T04:15:50;59.17;;;25.30;;
28028;SDS011;15345;59.364;18.016;2024-03-02T04:17:09;62.92;;;26.27;;
28028;SDS011;15345;59.364;18.016;2024-03-02T04:18:29;53.60;;;24.55;;
28028;SDS011;15345;59.364;18.016;2024-03-02T04:19:48;63.75;;;26.75;;
28028;SDS011;15345;59.364;18.016;2024-03-02T04:21:06;54.80;;;26.23;;
28028;SDS011;15345;59.364;18.016;2024-03-02T04:22:26;57.75;;;23.67;;
28028;SDS011;15345;59.364;18.016;2024-03-02T04:23:45;63.47;;;25.27;;
28028;SDS011;15345;59.364;18.016;2024-03-02T04:25:04;53.92;;;24.40;;
28028;SDS011;15345;59.364;18.016;2024-03-02T04:26:26;64.28;;;26.10;;
28028;SDS011;15345;59.364;18.016;2024-03-02T04:27:45;59.05;;;26.13;;
28028;SDS011;15345;59.364;18.016;2024-03-02T04:29:04;55.08;;;24.80;;
28028;SDS011;15345;59.364;18.016;2024-03-02T04:30:24;56.67;;;24.45;;
28028;SDS011;15345;59.364;18.016;2024-03-02T04:31:44;54.92;;;23.60;;
28028;SDS011;15345;59.364;18.016;2024-03-02T04:33:03;57.15;;;24.75;;
28028;SDS011;15345;59.364;18.016;2024-03-02T04:34:22;61.55;;;25.15;;
28028;SDS011;15345;59.364;18.016;2024-03-02T04:35:41;60.65;;;24.13;;
28028;SDS011;15345;59.364;18.016;2024-03-02T04:37:00;65.07;;;25.63;;
28028;SDS011;15345;59.364;18.016;2024-03-02T04:38:19;60.40;;;24.38;;
28028;SDS011;15345;59.364;18.016;2024-03-02T04:39:38;52.17;;;24.33;;
28028;SDS011;15345;59.364;18.016;2024-03-02T04:40:57;59.38;;;24.90;;
28028;SDS011;15345;59.364;18.016;2024-03-02T04:42:16;64.35;;;25.58;;
28028;SDS011;15345;59.364;18.016;2024-03-02T04:43:35;59.28;;;24.58;;
28028;SDS011;15345;59.364;18.016;2024-03-02T04:44:53;55.22;;;24.75;;
28028;SDS011;15345;59.364;18.016;2024-03-02T04:46:13;53.90;;;24.05;;
28028;SDS011;15345;59.364;18.016;2024-03-02T04:47:32;60.05;;;23.70;;
28028;SDS011;15345;59.364;18.016;2024-03-02T04:48:51;63.05;;;25.20;;
28028;SDS011;15345;59.364;18.016;2024-03-02T04:51:33;54.95;;;24.35;;
28028;SDS011;15345;59.364;18.016;2024-03-02T04:52:51;53.42;;;24.98;;
28028;SDS011;15345;59.364;18.016;2024-03-02T04:54:10;57.65;;;25.17;;
28028;SDS011;15345;59.364;18.016;2024-03-02T04:55:29;59.75;;;25.25;;
28028;SDS011;15345;59.364;18.016;2024-03-02T04:56:57;53.85;;;24.13;;
28028;SDS011;15345;59.364;18.016;2024-03-02T04:58:17;57.17;;;25.10;;
28028;SDS011;15345;59.364;18.016;2024-03-02T04:59:36;61.03;;;25.92;;
28028;SDS011;15345;59.364;18.016;2024-03-02T05:00:55;58.67;;;26.75;;
28028;SDS011;15345;59.364;18.016;2024-03-02T05:02:15;73.65;;;26.33;;
28028;SDS011;15345;59.364;18.016;2024-03-02T05:03:33;66.43;;;26.13;;
28028;SDS011;15345;59.364;18.016;2024-03-02T05:04:53;55.70;;;24.15;;
28028;SDS011;15345;59.364;18.016;2024-03-02T05:06:12;60.75;;;24.35;;
28028;SDS011;15345;59.364;18.016;2024-03-02T05:07:31;65.45;;;25.85;;
28028;SDS011;15345;59.364;18.016;2024-03-02T05:08:50;59.20;;;24.95;;
28028;SDS011;15345;59.364;18.016;2024-03-02T05:10:10;62.30;;;26.08;;
28028;SDS011;15345;59.364;18.016;2024-03-02T05:11:30;58.30;;;25.27;;
28028;SDS011;15345;59.364;18.016;2024-03-02T05:12:55;55.75;;;25.30;;
28028;SDS011;15345;59.364;18.016;2024-03-02T05:14:18;63.58;;;25.55;;
28028;SDS011;15345;59.364;18.016;2024-03-02T05:15:37;63.83;;;25.17;;
28028;SDS011;15345;59.364;18.016;2024-03-02T05:16:56;63.38;;;25.27;;
28028;SDS011;15345;59.364;18.016;2024-03-02T05:18:15;59.47;;;25.52;;
28028;SDS011;15345;59.364;18.016;2024-03-02T05:19:34;63.90;;;24.83;;
28028;SDS011;15345;59.364;18.016;2024-03-02T05:20:53;58.15;;;25.08;;
28028;SDS011;15345;59.364;18.016;2024-03-02T05:22:12;63.30;;;25.75;;
28028;SDS011;15345;59.364;18.016;2024-03-02T05:23:31;53.58;;;24.20;;
28028;SDS011;15345;59.364;18.016;2024-03-02T05:24:50;58.30;;;24.77;;
28028;SDS011;15345;59.364;18.016;2024-03-02T05:26:09;59.05;;;25.27;;
28028;SDS011;15345;59.364;18.016;2024-03-02T05:27:31;71.30;;;26.38;;
28028;SDS011;15345;59.364;18.016;2024-03-02T05:28:51;62.67;;;26.02;;
28028;SDS011;15345;59.364;18.016;2024-03-02T05:30:10;71.25;;;26.92;;
28028;SDS011;15345;59.364;18.016;2024-03-02T05:31:29;55.17;;;25.90;;
28028;SDS011;15345;59.364;18.016;2024-03-02T05:32:48;63.25;;;24.73;;
28028;SDS011;15345;59.364;18.016;2024-03-02T05:34:07;68.43;;;25.05;;
28028;SDS011;15345;59.364;18.016;2024-03-02T05:35:27;63.88;;;25.98;;
28028;SDS011;15345;59.364;18.016;2024-03-02T05:36:46;66.50;;;25.98;;
28028;SDS011;15345;59.364;18.016;2024-03-02T05:38:08;71.93;;;26.33;;
28028;SDS011;15345;59.364;18.016;2024-03-02T05:39:27;69.30;;;25.75;;
28028;SDS011;15345;59.364;18.016;2024-03-02T05:40:46;64.88;;;26.23;;
28028;SDS011;15345;59.364;18.016;2024-03-02T05:42:05;56.60;;;25.60;;
28028;SDS011;15345;59.364;18.016;2024-03-02T05:43:24;63.95;;;24.73;;
28028;SDS011;15345;59.364;18.016;2024-03-02T05:44:43;71.63;;;26.20;;
28028;SDS011;15345;59.364;18.016;2024-03-02T05:46:02;62.55;;;26.00;;
28028;SDS011;15345;59.364;18.016;2024-03-02T05:47:21;68.85;;;27.30;;
28028;SDS011;15345;59.364;18.016;2024-03-02T05:48:40;71.68;;;26.95;;
28028;SDS011;15345;59.364;18.016;2024-03-02T05:49:59;76.20;;;27.45;;
28028;SDS011;15345;59.364;18.016;2024-03-02T05:51:18;64.75;;;26.35;;
28028;SDS011;15345;59.364;18.016;2024-03-02T05:52:37;69.05;;;27.08;;
28028;SDS011;15345;59.364;18.016;2024-03-02T05:53:56;70.85;;;26.27;;
28028;SDS011;15345;59.364;18.016;2024-03-02T05:55:15;70.68;;;26.77;;
28028;SDS011;15345;59.364;18.016;2024-03-02T05:56:34;69.05;;;26.25;;
28028;SDS011;15345;59.364;18.016;2024-03-02T05:57:53;66.45;;;26.50;;
28028;SDS011;15345;59.364;18.016;2024-03-02T05:59:24;63.47;;;25.95;;
28028;SDS011;15345;59.364;18.016;2024-03-02T06:00:43;72.70;;;27.77;;
28028;SDS011;15345;59.364;18.016;2024-03-02T06:02:02;76.32;;;27.42;;
28028;SDS011;15345;59.364;18.016;2024-03-02T06:03:21;62.75;;;25.85;;
28028;SDS011;15345;59.364;18.016;2024-03-02T06:04:40;69.53;;;27.88;;
28028;SDS011;15345;59.364;18.016;2024-03-02T06:05:59;66.90;;;27.40;;
28028;SDS011;15345;59.364;18.016;2024-03-02T06:07:18;61.35;;;26.92;;
28028;SDS011;15345;59.364;18.016;2024-03-02T06:08:37;68.88;;;27.58;;
28028;SDS011;15345;59.364;18.016;2024-03-02T06:09:56;68.65;;;27.02;;
28028;SDS011;15345;59.364;18.016;2024-03-02T06:11:15;71.75;;;27.10;;
28028;SDS011;15345;59.364;18.016;2024-03-02T06:12:34;66.55;;;26.73;;
28028;SDS011;15345;59.364;18.016;2024-03-02T06:13:53;69.72;;;25.70;;
28028;SDS011;15345;59.364;18.016;2024-03-02T06:15:12;74.72;;;26.60;;
28028;SDS011;15345;59.364;18.016;2024-03-02T06:16:31;70.20;;;27.25;;
28028;SDS011;15345;59.364;18.016;2024-03-02T06:17:50;68.35;;;27.65;;
28028;SDS011;15345;59.364;18.016;2024-03-02T06:19:09;69.57;;;26.55;;
28028;SDS011;15345;59.364;18.016;2024-03-02T06:20:28;68.53;;;26.45;;
28028;SDS011;15345;59.364;18.016;2024-03-02T06:21:49;68.78;;;28.50;;
28028;SDS011;15345;59.364;18.016;2024-03-02T06:23:08;68.85;;;27.85;;
28028;SDS011;15345;59.364;18.016;2024-03-02T06:24:28;66.57;;;26.67;;
28028;SDS011;15345;59.364;18.016;2024-03-02T06:25:47;77.03;;;28.52;;
28028;SDS011;15345;59.364;18.016;2024-03-02T06:27:06;63.35;;;27.52;;
28028;SDS011;15345;59.364;18.016;2024-03-02T06:28:25;76.00;;;28.83;;
28028;SDS011;15345;59.364;18.016;2024-03-02T06:29:44;77.85;;;28.08;;
28028;SDS011;15345;59.364;18.016;2024-03-02T06:31:03;81.95;;;29.58;;
28028;SDS011;15345;59.364;18.016;2024-03-02T06:32:22;69.55;;;27.63;;
28028;SDS011;15345;59.364;18.016;2024-03-02T06:33:41;68.60;;;26.80;;
28028;SDS011;15345;59.364;18.016;2024-03-02T06:35:00;83.55;;;27.60;;
28028;SDS011;15345;59.364;18.016;2024-03-02T06:36:19;73.93;;;29.13;;
28028;SDS011;15345;59.364;18.016;2024-03-02T06:37:38;71.45;;;27.25;;
28028;SDS011;15345;59.364;18.016;2024-03-02T06:39:00;78.88;;;29.08;;
28028;SDS011;15345;59.364;18.016;2024-03-02T06:40:19;76.30;;;29.20;;
28028;SDS011;15345;59.364;18.016;2024-03-02T06:41:39;71.88;;;28.08;;
28028;SDS011;15345;59.364;18.016;2024-03-02T06:42:58;83.00;;;29.95;;
28028;SDS011;15345;59.364;18.016;2024-03-02T06:44:17;76.00;;;27.80;;
28028;SDS011;15345;59.364;18.016;2024-03-02T06:45:36;71.70;;;27.95;;
28028;SDS011;15345;59.364;18.016;2024-03-02T06:46:55;80.18;;;30.27;;
28028;SDS011;15345;59.364;18.016;2024-03-02T06:48:13;72.90;;;27.90;;
28028;SDS011;15345;59.364;18.016;2024-03-02T06:49:37;73.97;;;27.83;;
28028;SDS011;15345;59.364;18.016;2024-03-02T06:50:56;76.43;;;28.20;;
28028;SDS011;15345;59.364;18.016;2024-03-02T06:52:16;80.97;;;28.65;;
28028;SDS011;15345;59.364;18.016;2024-03-02T06:53:35;77.03;;;28.23;;
28028;SDS011;15345;59.364;18.016;2024-03-02T06:54:54;71.47;;;26.75;;
28028;SDS011;15345;59.364;18.016;2024-03-02T06:56:13;71.60;;;27.27;;
28028;SDS011;15345;59.364;18.016;2024-03-02T06:57:32;69.88;;;27.90;;
28028;SDS011;15345;59.364;18.016;2024-03-02T06:58:51;75.25;;;28.33;;
28028;SDS011;15345;59.364;18.016;2024-03-02T07:00:10;71.97;;;28.02;;
28028;SDS011;15345;59.364;18.016;2024-03-02T07:01:30;71.65;;;28.45;;
28028;SDS011;15345;59.364;18.016;2024-03-02T07:02:49;80.93;;;28.73;;
28028;SDS011;15345;59.364;18.016;2024-03-02T07:04:08;64.40;;;26.50;;
28028;SDS011;15345;59.364;18.016;2024-03-02T07:05:27;70.88;;;28.05;;
28028;SDS011;15345;59.364;18.016;2024-03-02T07:06:46;78.93;;;27.50;;
28028;SDS011;15345;59.364;18.016;2024-03-02T07:08:05;60.25;;;27.15;;
28028;SDS011;15345;59.364;18.016;2024-03-02T07:09:24;64.20;;;27.75;;
28028;SDS011;15345;59.364;18.016;2024-03-02T07:10:44;67.13;;;27.15;;
28028;SDS011;15345;59.364;18.016;2024-03-02T07:12:03;71.32;;;26.83;;
28028;SDS011;15345;59.364;18.016;2024-03-02T07:13:23;75.47;;;28.25;;
28028;SDS011;15345;59.364;18.016;2024-03-02T07:14:42;65.75;;;26.73;;
28028;SDS011;15345;59.364;18.016;2024-03-02T07:16:20;68.28;;;25.63;;
28028;SDS011;15345;59.364;18.016;2024-03-02T07:17:51;69.45;;;26.52;;
28028;SDS011;15345;59.364;18.016;2024-03-02T07:19:10;65.25;;;26.48;;
28028;SDS011;15345;59.364;18.016;2024-03-02T07:20:29;67.03;;;27.58;;
28028;SDS011;15345;59.364;18.016;2024-03-02T07:21:48;67.03;;;25.58;;
28028;SDS011;15345;59.364;18.016;2024-03-02T07:23:08;69.88;;;26.45;;
28028;SDS011;15345;59.364;18.016;2024-03-02T07:24:28;59.72;;;24.55;;
28028;SDS011;15345;59.364;18.016;2024-03-02T07:25:46;61.80;;;26.00;;
28028;SDS011;15345;59.364;18.016;2024-03-02T07:27:05;66.97;;;26.88;;
28028;SDS011;15345;59.364;18.016;2024-03-02T07:28:25;64.43;;;26.67;;
28028;SDS011;15345;59.364;18.016;2024-03-02T07:29:44;59.88;;;25.35;;
28028;SDS011;15345;59.364;18.016;2024-03-02T07:31:03;62.50;;;26.75;;
28028;SDS011;15345;59.364;18.016;2024-03-02T07:32:23;70.88;;;26.85;;
28028;SDS011;15345;59.364;18.016;2024-03-02T07:33:43;65.20;;;25.60;;
28028;SDS011;15345;59.364;18.016;2024-03-02T07:35:02;57.58;;;25.83;;
28028;SDS011;15345;59.364;18.016;2024-03-02T07:36:22;66.15;;;26.33;;
28028;SDS011;15345;59.364;18.016;2024-03-02T07:37:41;67.50;;;26.33;;
28028;SDS011;15345;59.364;18.016;2024-03-02T07:39:00;67.63;;;26.67;;
28028;SDS011;15345;59.364;18.016;2024-03-02T07:40:19;64.25;;;25.70;;
28028;SDS011;15345;59.364;18.016;2024-03-02T07:41:38;63.97;;;25.58;;